Time;durP1;ratioP1;P1;durP2;ratioP2;P2;SDS_P1;SDS_P2;PMS_P1;PMS_P2;Temp;Humidity;BMP_temperature;BMP_pressure;BME280_temperature;BME280_humidity;BME280_pressure;Samples;Min_cycle;Max_cycle;Signal;HPM_P1;HPM_P2
2022/11/06 00:00:44;;;;;;;13.87;5.60;;;10.80;99.90;;;;;;4984314;28;37280;-78
2022/11/06 00:03:10;;;;;;;11.57;4.20;;;10.80;99.90;;;;;;4967964;28;36606;-77
2022/11/06 00:08:34;;;;;;;9.47;5.20;;;10.70;99.90;;;;;;4984173;28;41231;-78
2022/11/06 00:11:06;;;;;;;14.43;6.00;;;10.80;99.90;;;;;;4967128;28;40484;-79
2022/11/06 00:13:32;;;;;;;14.27;5.05;;;10.80;99.90;;;;;;4983777;28;48659;-78
2022/11/06 00:16:05;;;;;;;10.77;4.70;;;10.80;99.90;;;;;;4983587;28;39684;-77
2022/11/06 00:18:32;;;;;;;11.77;5.43;;;10.90;99.90;;;;;;4969350;28;46994;-77
2022/11/06 00:21:04;;;;;;;9.32;4.43;;;10.80;99.90;;;;;;4988066;28;38189;-77
2022/11/06 00:23:31;;;;;;;11.70;4.80;;;10.90;99.90;;;;;;4973737;28;46893;-77
2022/11/06 00:25:57;;;;;;;11.30;4.77;;;10.80;99.90;;;;;;4968036;28;39783;-77
2022/11/06 00:28:23;;;;;;;17.00;5.13;;;10.90;99.90;;;;;;4968231;28;39088;-79
2022/11/06 00:30:49;;;;;;;15.73;5.80;;;10.90;99.90;;;;;;4949375;28;39464;-78
2022/11/06 00:33:15;;;;;;;12.98;4.72;;;10.90;99.90;;;;;;4951077;28;36715;-77
2022/11/06 00:35:41;;;;;;;15.85;4.43;;;10.90;99.90;;;;;;4946178;28;39814;-78
2022/11/06 00:38:07;;;;;;;15.18;4.78;;;10.90;99.90;;;;;;4943897;28;38989;-78
2022/11/06 00:40:33;;;;;;;9.88;4.18;;;10.90;99.90;;;;;;4948478;28;39265;-78
2022/11/06 00:43:00;;;;;;;13.32;4.63;;;10.90;99.90;;;;;;4933502;28;38418;-77
2022/11/06 00:45:26;;;;;;;20.00;5.28;;;10.90;99.90;;;;;;4930515;28;41598;-78
2022/11/06 00:47:52;;;;;;;10.70;4.73;;;10.90;99.90;;;;;;4949982;28;38534;-77
2022/11/06 00:50:18;;;;;;;12.73;4.90;;;10.90;99.90;;;;;;4941892;28;36600;-79
2022/11/06 00:52:44;;;;;;;13.20;4.90;;;10.90;99.90;;;;;;4941508;28;35641;-78
2022/11/06 00:55:10;;;;;;;8.52;4.53;;;10.90;99.90;;;;;;4926694;28;40504;-78
2022/11/06 00:57:36;;;;;;;14.33;4.87;;;10.90;99.90;;;;;;4926663;28;39156;-78
2022/11/06 01:00:03;;;;;;;13.55;4.68;;;10.80;99.90;;;;;;4926327;28;39939;-78
2022/11/06 01:02:29;;;;;;;16.80;4.97;;;10.90;99.90;;;;;;4933275;28;37749;-78
2022/11/06 01:04:55;;;;;;;19.90;4.85;;;10.90;99.90;;;;;;4966018;28;38572;-79
2022/11/06 01:07:22;;;;;;;14.50;4.93;;;10.80;99.90;;;;;;4966776;28;39672;-78
2022/11/06 01:09:49;;;;;;;9.80;4.68;;;10.80;99.90;;;;;;4949552;28;39950;-78
2022/11/06 01:12:15;;;;;;;13.32;4.05;;;10.80;99.90;;;;;;4963818;28;37706;-78
2022/11/06 01:14:42;;;;;;;10.67;4.67;;;10.80;99.90;;;;;;4948230;28;39256;-78
2022/11/06 01:17:08;;;;;;;15.60;4.80;;;10.90;99.90;;;;;;4962858;28;39009;-77
2022/11/06 01:19:34;;;;;;;14.63;5.40;;;10.80;99.90;;;;;;4969714;28;37479;-79
2022/11/06 01:22:00;;;;;;;15.47;4.13;;;10.80;99.90;;;;;;4946587;28;37292;-78
2022/11/06 01:24:28;;;;;;;10.83;4.10;;;10.90;99.90;;;;;;4938232;28;39577;-78
2022/11/06 01:26:55;;;;;;;16.15;4.97;;;10.90;99.90;;;;;;4965092;28;38832;-78
2022/11/06 01:29:21;;;;;;;16.77;4.75;;;11.00;99.90;;;;;;4964906;28;39682;-77
2022/11/06 01:31:50;;;;;;;9.77;4.25;;;11.00;99.90;;;;;;4980617;28;37053;-77
2022/11/06 01:34:17;;;;;;;11.63;4.30;;;11.00;99.90;;;;;;4979085;28;41181;-79
2022/11/06 01:36:43;;;;;;;14.27;4.28;;;11.00;99.90;;;;;;4961841;28;39211;-80
2022/11/06 01:39:12;;;;;;;9.95;4.00;;;11.00;99.90;;;;;;4962420;28;37138;-77
2022/11/06 01:41:42;;;;;;;14.90;4.03;;;11.00;99.90;;;;;;4963328;28;37948;-77
2022/11/06 01:44:42;;;;;;;15.82;4.10;;;11.00;99.90;;;;;;4967209;28;37138;-77
2022/11/06 01:47:21;;;;;;;16.10;4.47;;;10.90;99.90;;;;;;4985877;28;38690;-78
2022/11/06 01:49:50;;;;;;;11.68;4.13;;;10.90;99.90;;;;;;4987045;28;38297;-77
2022/11/06 01:52:18;;;;;;;13.43;3.90;;;10.80;99.90;;;;;;4982752;28;35979;-78
2022/11/06 01:54:47;;;;;;;11.43;5.18;;;10.80;99.90;;;;;;4984385;28;37667;-78
2022/11/06 01:57:13;;;;;;;12.52;4.60;;;10.80;99.90;;;;;;4964438;28;37830;-79
2022/11/06 01:59:45;;;;;;;14.02;4.63;;;10.90;99.90;;;;;;4980077;28;38183;-76
2022/11/06 02:02:14;;;;;;;14.10;4.18;;;10.90;99.90;;;;;;5387732;23;38176;-79
2022/11/06 02:04:47;;;;;;;14.20;5.22;;;10.90;99.90;;;;;;4956571;28;36608;-81
2022/11/06 02:07:15;;;;;;;18.98;5.00;;;10.90;99.90;;;;;;4948112;28;39359;-82
2022/11/06 02:09:41;;;;;;;13.98;5.50;;;10.90;99.90;;;;;;4964148;28;38376;-80
2022/11/06 02:12:21;;;;;;;8.32;4.45;;;11.00;99.90;;;;;;4959779;28;38125;-81
2022/11/06 02:15:07;;;;;;;14.93;4.68;;;11.00;99.90;;;;;;4939283;28;37511;-81
2022/11/06 02:17:56;;;;;;;14.07;4.57;;;11.00;99.90;;;;;;4973289;28;48684;-81
2022/11/06 02:20:51;;;;;;;12.68;4.82;;;11.00;99.90;;;;;;4959452;28;36709;-80
2022/11/06 02:23:37;;;;;;;12.40;5.00;;;11.00;99.90;;;;;;4957449;28;37659;-81
2022/11/06 02:26:30;;;;;;;12.77;4.78;;;11.10;99.90;;;;;;4949744;28;38362;-80
2022/11/06 02:29:03;;;;;;;20.63;5.00;;;11.00;99.90;;;;;;4941159;28;47967;-81
2022/11/06 02:31:30;;;;;;;;;;;11.10;99.90;;;;;;4944960;28;47162;-79
2022/11/06 02:34:05;;;;;;;19.67;4.88;;;11.10;99.90;;;;;;4951925;28;38522;-80
2022/11/06 02:36:34;;;;;;;16.08;4.95;;;11.10;99.90;;;;;;4938415;28;47220;-80
2022/11/06 02:39:04;;;;;;;16.48;6.00;;;11.10;99.90;;;;;;4954566;28;38097;-81
2022/11/06 02:41:35;;;;;;;14.15;5.45;;;11.10;99.90;;;;;;4939145;28;46767;-79
2022/11/06 02:44:06;;;;;;;14.02;4.55;;;11.10;99.90;;;;;;4958949;28;36145;-79
2022/11/06 02:46:37;;;;;;;15.90;5.22;;;11.10;99.90;;;;;;4955486;28;48595;-80
2022/11/06 02:49:26;;;;;;;10.90;4.80;;;11.10;99.90;;;;;;4938801;28;37072;-80
2022/11/06 02:52:04;;;;;;;18.40;5.60;;;11.10;99.90;;;;;;4937164;28;39359;-81
2022/11/06 02:54:34;;;;;;;13.57;5.18;;;11.10;99.90;;;;;;4949318;28;48151;-79
2022/11/06 02:57:06;;;;;;;10.98;4.53;;;11.10;99.90;;;;;;4948378;28;40638;-80
2022/11/06 02:59:57;;;;;;;16.75;5.82;;;11.10;99.90;;;;;;4938693;28;46972;-80
2022/11/06 03:02:32;;;;;;;15.10;5.28;;;11.10;99.90;;;;;;4955081;28;38317;-80
2022/11/06 03:05:33;;;;;;;10.23;5.00;;;11.10;99.90;;;;;;4921759;28;36504;-79
2022/11/06 03:08:15;;;;;;;16.70;6.15;;;11.10;99.90;;;;;;4888783;29;47153;-80
2022/11/06 03:11:03;;;;;;;14.30;5.90;;;11.10;99.90;;;;;;4940036;28;46190;-80
2022/11/06 03:13:40;;;;;;;15.68;6.32;;;11.00;99.90;;;;;;4923715;28;49179;-80
2022/11/06 03:16:26;;;;;;;14.25;5.80;;;10.90;99.90;;;;;;4954579;28;36704;-80
2022/11/06 03:18:58;;;;;;;14.70;6.50;;;10.90;99.90;;;;;;4944787;28;38582;-80
2022/11/06 03:22:05;;;;;;;26.30;7.65;;;10.80;99.90;;;;;;4946142;28;39743;-79
2022/11/06 03:24:52;;;;;;;15.52;7.03;;;10.80;99.90;;;;;;4948719;28;49180;-79
2022/11/06 03:27:40;;;;;;;13.50;7.47;;;10.80;99.90;;;;;;4961042;28;37514;-80
2022/11/06 03:30:10;;;;;;;17.48;6.97;;;10.80;99.90;;;;;;4950992;28;38951;-79
2022/11/06 03:32:55;;;;;;;17.15;6.35;;;10.80;99.90;;;;;;4960209;28;38906;-79
2022/11/06 03:35:26;;;;;;;17.10;6.60;;;10.80;99.90;;;;;;4954540;28;37955;-81
2022/11/06 03:38:30;;;;;;;19.25;6.75;;;10.90;99.90;;;;;;4955355;28;37012;-80
2022/11/06 03:41:03;;;;;;;12.63;6.23;;;10.90;99.90;;;;;;4957034;28;49017;-80
2022/11/06 03:43:35;;;;;;;14.17;6.07;;;10.90;99.90;;;;;;4947118;28;39044;-80
2022/11/06 03:46:06;;;;;;;11.80;5.00;;;10.90;99.90;;;;;;4939712;28;37312;-79
2022/11/06 03:48:40;;;;;;;12.93;4.93;;;10.90;99.90;;;;;;4958270;28;49294;-80
2022/11/06 03:51:13;;;;;;;16.87;5.87;;;10.90;99.90;;;;;;4949221;28;38841;-81
2022/11/06 03:54:07;;;;;;;16.47;5.87;;;11.00;99.90;;;;;;4961282;28;38490;-80
2022/11/06 03:56:50;;;;;;;13.40;5.73;;;11.00;99.90;;;;;;4938244;28;47326;-79
2022/11/06 03:59:22;;;;;;;15.73;5.47;;;11.00;99.90;;;;;;4955936;28;40202;-79
2022/11/06 04:01:48;;;;;;;12.93;5.32;;;11.00;99.90;;;;;;4959008;28;39104;-80
2022/11/06 04:04:25;;;;;;;18.60;5.72;;;11.00;99.90;;;;;;4955326;28;38561;-78
2022/11/06 04:07:12;;;;;;;15.80;6.40;;;11.00;99.90;;;;;;4932319;28;37195;-80
2022/11/06 04:15:13;;;;;;;;;;;11.00;99.90;;;;;;4954694;28;39559;-80
2022/11/06 04:17:42;;;;;;;13.43;5.73;;;11.00;99.90;;;;;;4941168;28;36452;-78
2022/11/06 04:21:20;;;;;;;16.55;5.65;;;11.00;99.90;;;;;;4939692;28;35330;-77
2022/11/06 04:23:32;;;;;;;20.95;5.53;;;11.00;99.90;;;;;;4956759;28;38672;-80
2022/11/06 04:29:27;;;;;;;11.77;5.10;;;11.00;99.90;;;;;;4959587;28;49773;-80
2022/11/06 04:32:28;;;;;;;14.85;5.68;;;11.00;99.90;;;;;;4962724;28;49081;-79
2022/11/06 04:35:19;;;;;;;19.75;5.00;;;11.00;99.90;;;;;;4923839;28;46947;-80
2022/11/06 04:37:56;;;;;;;10.32;4.60;;;10.90;99.90;;;;;;4956924;28;49103;-79
2022/11/06 04:40:25;;;;;;;17.05;5.45;;;10.90;99.90;;;;;;4960162;28;37229;-80
2022/11/06 04:43:11;;;;;;;11.60;4.53;;;10.90;99.90;;;;;;4963265;28;38771;-79
2022/11/06 04:45:44;;;;;;;12.20;4.72;;;10.90;99.90;;;;;;4940279;28;46713;-80
2022/11/06 04:48:11;;;;;;;12.20;4.35;;;10.80;99.90;;;;;;4939516;28;38437;-79
2022/11/06 04:50:48;;;;;;;12.05;3.92;;;10.90;99.90;;;;;;4948283;28;38414;-78
2022/11/06 04:53:17;;;;;;;11.40;4.75;;;10.80;99.90;;;;;;4936312;28;37005;-81
2022/11/06 04:55:50;;;;;;;15.80;5.03;;;10.80;99.90;;;;;;4947662;28;37511;-79
2022/11/06 04:58:16;;;;;;;10.32;4.75;;;10.90;99.90;;;;;;4955721;28;38735;-81
2022/11/06 05:00:45;;;;;;;15.68;4.53;;;10.80;99.90;;;;;;4955408;28;38290;-78
2022/11/06 05:03:12;;;;;;;11.45;5.38;;;10.80;99.90;;;;;;4951708;28;37453;-77
2022/11/06 05:05:38;;;;;;;14.95;4.75;;;10.80;99.90;;;;;;4931927;28;38653;-79
2022/11/06 05:08:05;;;;;;;14.90;4.40;;;10.70;99.90;;;;;;4953623;28;38304;-78
2022/11/06 05:10:31;;;;;;;9.03;3.93;;;10.70;99.90;;;;;;4949359;28;37062;-77
2022/11/06 05:12:57;;;;;;;12.67;4.23;;;10.70;99.90;;;;;;4951549;28;36230;-79
2022/11/06 05:15:23;;;;;;;12.30;4.15;;;10.70;99.90;;;;;;4938237;28;37431;-79
2022/11/06 05:17:49;;;;;;;16.40;4.32;;;10.70;99.90;;;;;;4956433;28;38949;-79
2022/11/06 05:20:15;;;;;;;12.48;3.60;;;10.70;99.90;;;;;;4949641;28;37299;-81
2022/11/06 05:22:57;;;;;;;11.90;4.03;;;10.70;99.90;;;;;;4948612;28;36838;-80
2022/11/06 05:25:24;;;;;;;11.40;3.85;;;10.70;99.90;;;;;;4940624;28;39782;-79
2022/11/06 05:27:50;;;;;;;10.10;4.10;;;10.70;99.90;;;;;;4958086;28;36993;-79
2022/11/06 05:30:16;;;;;;;11.18;3.70;;;10.70;99.90;;;;;;4942997;28;38158;-79
2022/11/06 05:32:42;;;;;;;10.93;4.37;;;10.60;99.90;;;;;;4942871;28;35693;-78
2022/11/06 05:35:08;;;;;;;13.17;4.47;;;10.60;99.90;;;;;;4934967;28;36966;-79
2022/11/06 05:37:35;;;;;;;12.80;4.00;;;10.60;99.90;;;;;;4948825;28;38290;-79
2022/11/06 05:40:01;;;;;;;17.13;5.03;;;10.60;99.90;;;;;;4950082;28;38260;-77
2022/11/06 05:42:27;;;;;;;13.00;4.07;;;10.60;99.90;;;;;;4947792;28;37492;-78
2022/11/06 05:44:53;;;;;;;10.80;4.37;;;10.50;99.90;;;;;;4951982;28;37527;-78
2022/11/06 05:47:19;;;;;;;10.63;4.40;;;10.50;99.90;;;;;;4947281;28;39010;-77
2022/11/06 05:49:45;;;;;;;10.70;3.93;;;10.60;99.90;;;;;;4934660;28;35114;-78
2022/11/06 05:52:11;;;;;;;15.10;4.50;;;10.60;99.90;;;;;;4953937;28;38531;-77
2022/11/06 05:54:37;;;;;;;11.97;4.10;;;10.60;99.90;;;;;;4952178;28;37763;-78
2022/11/06 05:57:03;;;;;;;13.10;3.90;;;10.60;99.90;;;;;;4936021;28;37237;-77
2022/11/06 05:59:29;;;;;;;10.17;4.10;;;10.60;99.90;;;;;;4947543;28;38976;-78
2022/11/06 06:01:55;;;;;;;11.03;3.53;;;10.60;99.90;;;;;;4943489;28;36859;-78
2022/11/06 06:04:21;;;;;;;10.88;3.75;;;10.60;99.90;;;;;;4927535;28;39017;-78
2022/11/06 06:06:47;;;;;;;6.97;3.40;;;10.70;99.90;;;;;;4947371;28;38278;-79
2022/11/06 06:09:13;;;;;;;10.50;3.97;;;10.70;99.90;;;;;;4946808;28;39894;-79
2022/11/06 06:11:40;;;;;;;11.47;3.50;;;10.70;99.90;;;;;;4949852;28;37066;-78
2022/11/06 06:14:06;;;;;;;11.13;3.70;;;10.70;99.90;;;;;;4924288;28;37790;-79
2022/11/06 06:16:33;;;;;;;6.20;2.70;;;10.60;99.90;;;;;;4947602;28;38995;-79
2022/11/06 06:18:59;;;;;;;14.67;3.73;;;10.70;99.90;;;;;;4948744;28;38608;-78
2022/11/06 06:21:25;;;;;;;11.73;3.93;;;10.70;99.90;;;;;;4930242;28;36767;-79
2022/11/06 06:23:51;;;;;;;14.33;3.90;;;10.70;99.90;;;;;;4944864;28;38667;-80
2022/11/06 06:26:17;;;;;;;9.57;3.40;;;10.70;99.90;;;;;;4928451;28;37402;-76
2022/11/06 06:28:43;;;;;;;12.13;2.93;;;10.70;99.90;;;;;;4944511;28;39749;-79
2022/11/06 06:31:10;;;;;;;10.73;2.70;;;10.80;99.90;;;;;;4947170;28;36275;-78
2022/11/06 06:33:36;;;;;;;9.23;2.70;;;10.80;99.90;;;;;;4951501;28;39027;-76
2022/11/06 06:36:03;;;;;;;9.93;3.40;;;10.80;99.90;;;;;;4941898;28;37506;-77
2022/11/06 06:38:30;;;;;;;8.87;3.13;;;10.90;99.90;;;;;;4950919;28;38922;-78
2022/11/06 06:41:01;;;;;;;14.87;2.93;;;10.90;99.90;;;;;;4949367;28;37283;-79
2022/11/06 06:43:27;;;;;;;10.43;3.17;;;10.90;99.90;;;;;;4949983;28;39799;-81
2022/11/06 06:45:56;;;;;;;6.63;2.43;;;11.00;99.90;;;;;;4934570;28;37592;-78
2022/11/06 06:48:25;;;;;;;12.37;3.07;;;11.00;99.90;;;;;;4948729;28;39420;-78
2022/11/06 06:50:51;;;;;;;10.90;2.63;;;11.00;99.90;;;;;;4946763;28;37307;-78
2022/11/06 06:53:17;;;;;;;7.10;2.30;;;11.10;99.90;;;;;;4945130;28;37728;-77
2022/11/06 06:55:43;;;;;;;13.03;3.40;;;11.10;99.90;;;;;;4941169;28;38053;-79
2022/11/06 06:58:10;;;;;;;14.43;2.80;;;11.10;99.90;;;;;;4938032;28;37207;-78
2022/11/06 07:00:36;;;;;;;10.93;3.03;;;11.10;99.90;;;;;;4949140;28;37381;-78
2022/11/06 07:03:02;;;;;;;10.30;3.10;;;11.10;99.90;;;;;;4945501;28;38843;-80
2022/11/06 07:05:28;;;;;;;12.20;3.00;;;11.10;99.90;;;;;;4940583;28;47152;-80
2022/11/06 07:07:55;;;;;;;9.63;2.83;;;11.20;99.90;;;;;;4942179;28;39111;-79
2022/11/06 07:10:21;;;;;;;9.43;3.00;;;11.20;99.90;;;;;;4925118;28;36190;-82
2022/11/06 07:12:47;;;;;;;13.55;3.03;;;11.20;99.90;;;;;;4951725;28;37762;-79
2022/11/06 07:15:14;;;;;;;10.60;3.17;;;11.30;99.90;;;;;;4929390;28;35945;-79
2022/11/06 07:17:40;;;;;;;9.27;2.73;;;11.30;99.90;;;;;;4935201;28;35718;-81
2022/11/06 07:20:07;;;;;;;9.18;2.08;;;11.30;99.90;;;;;;4949134;28;35672;-79
2022/11/06 07:22:33;;;;;;;16.53;3.00;;;11.40;99.90;;;;;;4943277;28;40065;-80
2022/11/06 07:24:59;;;;;;;8.63;2.63;;;11.50;99.90;;;;;;4929509;28;37446;-80
2022/11/06 07:27:25;;;;;;;8.23;2.83;;;11.50;99.90;;;;;;4945160;28;36968;-79
2022/11/06 07:29:52;;;;;;;9.95;2.55;;;11.50;99.90;;;;;;4947016;28;37626;-80
2022/11/06 07:32:21;;;;;;;9.15;2.33;;;11.60;99.90;;;;;;4933806;28;37614;-80
2022/11/06 07:34:47;;;;;;;11.13;2.40;;;11.70;99.90;;;;;;4952322;28;38725;-80
2022/11/06 07:37:13;;;;;;;9.77;2.50;;;11.70;99.90;;;;;;4950638;28;39013;-79
2022/11/06 07:39:39;;;;;;;7.68;2.03;;;11.80;99.90;;;;;;4945963;28;37902;-79
2022/11/06 07:42:05;;;;;;;5.97;2.10;;;11.80;99.90;;;;;;4952861;28;37967;-78
2022/11/06 07:44:32;;;;;;;7.38;2.22;;;11.80;99.90;;;;;;4933885;28;37312;-78
2022/11/06 07:46:58;;;;;;;9.47;2.33;;;11.80;99.90;;;;;;4950231;28;38592;-79
2022/11/06 07:49:24;;;;;;;6.93;2.35;;;11.80;99.90;;;;;;4947325;28;36453;-80
2022/11/06 07:51:50;;;;;;;13.48;2.97;;;11.90;99.90;;;;;;4951834;28;37120;-80
2022/11/06 07:54:16;;;;;;;7.78;2.20;;;11.90;99.90;;;;;;4955298;28;39224;-81
2022/11/06 07:56:42;;;;;;;5.43;1.60;;;11.90;99.90;;;;;;4950845;28;36870;-81
2022/11/06 07:59:08;;;;;;;6.97;1.63;;;11.80;99.90;;;;;;4953064;28;38238;-80
2022/11/06 08:01:35;;;;;;;6.65;1.95;;;11.80;99.90;;;;;;4952598;28;37895;-82
2022/11/06 08:04:01;;;;;;;9.23;2.17;;;11.80;99.90;;;;;;4953905;28;38475;-81
2022/11/06 08:06:27;;;;;;;6.63;1.85;;;11.80;99.90;;;;;;4959290;28;37741;-81
2022/11/06 08:08:53;;;;;;;11.02;2.25;;;11.70;99.90;;;;;;4966083;28;37726;-79
2022/11/06 08:11:19;;;;;;;8.32;2.10;;;11.60;99.90;;;;;;4958000;28;37305;-81
2022/11/06 08:13:45;;;;;;;10.13;2.35;;;11.50;99.90;;;;;;4944706;28;37425;-79
2022/11/06 08:16:13;;;;;;;7.07;2.20;;;11.50;99.90;;;;;;4969887;28;38679;-79
2022/11/06 08:18:40;;;;;;;8.00;2.20;;;11.50;99.90;;;;;;4973366;28;35912;-79
2022/11/06 08:21:07;;;;;;;6.72;2.40;;;11.40;99.90;;;;;;4946147;28;37526;-80
2022/11/06 08:23:34;;;;;;;10.95;3.38;;;11.40;99.90;;;;;;4954474;28;38466;-80
2022/11/06 08:26:03;;;;;;;7.78;2.53;;;11.40;99.90;;;;;;4940486;28;38744;-78
2022/11/06 08:28:29;;;;;;;7.45;2.00;;;11.40;99.90;;;;;;4940311;28;36498;-78
2022/11/06 08:30:55;;;;;;;11.63;2.80;;;11.50;99.90;;;;;;4951569;28;39841;-81
2022/11/06 08:33:22;;;;;;;11.48;2.25;;;11.50;99.90;;;;;;4944032;28;37315;-83
2022/11/06 08:35:49;;;;;;;11.48;1.98;;;11.50;99.90;;;;;;4958307;28;38476;-78
2022/11/06 08:38:15;;;;;;;9.05;2.75;;;11.60;99.90;;;;;;4941639;28;36242;-81
2022/11/06 08:40:41;;;;;;;12.35;1.95;;;11.70;99.90;;;;;;4955124;28;39758;-79
2022/11/06 08:43:10;;;;;;;10.50;2.13;;;11.70;99.90;;;;;;4947727;28;38274;-81
2022/11/06 08:45:38;;;;;;;6.97;2.00;;;11.80;99.90;;;;;;4951667;28;39061;-79
2022/11/06 08:48:04;;;;;;;12.38;2.13;;;11.90;99.90;;;;;;4934465;28;36405;-80
2022/11/06 08:50:31;;;;;;;11.00;2.15;;;12.00;99.90;;;;;;4946802;28;38678;-79
2022/11/06 08:53:02;;;;;;;14.52;1.83;;;12.10;99.90;;;;;;4929360;28;37388;-79
2022/11/06 08:55:30;;;;;;;4.27;1.73;;;12.10;99.90;;;;;;4935824;28;47285;-80
2022/11/06 08:57:56;;;;;;;7.63;2.05;;;12.20;99.90;;;;;;4945359;28;36110;-76
2022/11/06 09:00:22;;;;;;;4.95;1.50;;;12.20;99.90;;;;;;4928307;28;37616;-79
2022/11/06 09:02:49;;;;;;;6.03;1.60;;;12.30;99.90;;;;;;4951653;28;38292;-76
2022/11/06 09:05:17;;;;;;;12.48;1.77;;;12.30;99.90;;;;;;4948134;28;37933;-79
2022/11/06 09:07:43;;;;;;;7.97;1.73;;;12.40;99.90;;;;;;4947685;28;36977;-77
2022/11/06 09:10:09;;;;;;;7.57;1.58;;;12.40;99.90;;;;;;4945522;28;37574;-79
2022/11/06 09:12:35;;;;;;;9.52;2.72;;;12.40;99.90;;;;;;4949989;28;38221;-79
2022/11/06 09:15:01;;;;;;;10.27;2.20;;;12.40;99.90;;;;;;4947397;28;38526;-77
2022/11/06 09:17:27;;;;;;;10.18;2.13;;;12.40;99.90;;;;;;4949934;28;37949;-80
2022/11/06 09:19:54;;;;;;;6.10;1.77;;;12.40;99.90;;;;;;4949763;28;39306;-78
2022/11/06 09:22:20;;;;;;;8.48;1.70;;;12.40;99.90;;;;;;4946402;28;37484;-78
2022/11/06 09:24:46;;;;;;;9.02;2.10;;;12.50;99.90;;;;;;4948673;28;36981;-80
2022/11/06 09:27:12;;;;;;;8.45;1.65;;;12.50;99.90;;;;;;4954140;28;36979;-80
2022/11/06 09:29:39;;;;;;;7.20;1.98;;;12.50;99.90;;;;;;4951500;28;37678;-80
2022/11/06 09:32:06;;;;;;;5.75;1.88;;;12.50;99.90;;;;;;4936444;28;37811;-81
2022/11/06 09:34:32;;;;;;;7.45;1.90;;;12.60;99.90;;;;;;4957779;28;38863;-81
2022/11/06 09:37:01;;;;;;;8.23;1.70;;;12.60;99.90;;;;;;4956584;28;37135;-80
2022/11/06 09:39:27;;;;;;;6.20;2.08;;;12.60;99.90;;;;;;4957965;28;39939;-79
2022/11/06 09:42:05;;;;;;;11.25;2.50;;;12.70;99.90;;;;;;4935660;28;38139;-78
2022/11/06 09:44:46;;;;;;;7.00;1.92;;;12.70;99.90;;;;;;4954017;28;49078;-79
2022/11/06 09:47:17;;;;;;;11.65;1.95;;;12.80;99.90;;;;;;4926459;28;36564;-78
2022/11/06 09:49:50;;;;;;;10.85;2.63;;;12.80;99.90;;;;;;4934407;28;37681;-79
2022/11/06 09:52:36;;;;;;;8.50;1.85;;;12.80;99.90;;;;;;4933278;28;35913;-77
2022/11/06 09:55:11;;;;;;;7.47;1.80;;;12.80;99.90;;;;;;4943461;28;37558;-77
2022/11/06 09:57:50;;;;;;;8.50;1.83;;;12.90;99.90;;;;;;4946938;28;48764;-79
2022/11/06 10:00:17;;;;;;;7.13;1.30;;;12.90;99.90;;;;;;4929687;28;37837;-76
2022/11/06 10:02:55;;;;;;;10.27;1.90;;;12.90;99.90;;;;;;4943039;28;38320;-78
2022/11/06 10:05:30;;;;;;;5.93;2.00;;;12.90;99.90;;;;;;4943642;28;37368;-79
2022/11/06 10:08:06;;;;;;;10.27;1.60;;;12.90;99.90;;;;;;4923890;28;36742;-79
2022/11/06 10:10:51;;;;;;;10.60;2.30;;;12.90;99.90;;;;;;4943355;28;47985;-79
2022/11/06 10:13:26;;;;;;;7.60;1.75;;;12.90;99.90;;;;;;4945170;28;38444;-79
2022/11/06 10:15:58;;;;;;;11.07;1.80;;;12.90;99.90;;;;;;4946029;28;38540;-79
2022/11/06 10:18:30;;;;;;;6.57;1.80;;;12.90;99.90;;;;;;4947548;28;37927;-79
2022/11/06 10:21:10;;;;;;;14.50;1.88;;;12.80;99.90;;;;;;4947596;28;37836;-78
2022/11/06 10:23:46;;;;;;;15.75;2.30;;;12.70;99.90;;;;;;4945770;28;48639;-78
2022/11/06 10:26:25;;;;;;;12.38;2.13;;;12.70;99.90;;;;;;4940158;28;38216;-77
2022/11/06 10:29:02;;;;;;;6.82;1.60;;;12.60;99.90;;;;;;4921448;28;36076;-80
2022/11/06 10:31:46;;;;;;;9.18;1.90;;;12.70;99.90;;;;;;4925343;28;41186;-78
2022/11/06 10:34:21;;;;;;;8.38;1.80;;;12.70;99.90;;;;;;4949102;28;38024;-78
2022/11/06 10:37:04;;;;;;;6.30;1.30;;;12.80;99.90;;;;;;4950275;28;38731;-77
2022/11/06 10:39:34;;;;;;;9.27;2.45;;;12.80;99.90;;;;;;4944073;28;48913;-78
2022/11/06 10:42:15;;;;;;;6.47;1.58;;;12.90;99.90;;;;;;4931079;28;37682;-78
2022/11/06 10:44:52;;;;;;;8.30;1.88;;;12.90;99.90;;;;;;4951865;28;48347;-78
2022/11/06 10:47:21;;;;;;;8.60;1.98;;;12.90;99.90;;;;;;4951058;28;38967;-78
2022/11/06 10:49:54;;;;;;;5.95;1.90;;;12.90;99.90;;;;;;4934391;28;36056;-80
2022/11/06 10:52:45;;;;;;;9.65;2.10;;;12.80;99.90;;;;;;4959847;28;38420;-80
2022/11/06 10:55:38;;;;;;;6.78;1.73;;;12.90;99.90;;;;;;4932207;28;37094;-81
2022/11/06 10:58:08;;;;;;;6.50;1.40;;;12.80;99.90;;;;;;4948005;28;38413;-80
2022/11/06 11:00:35;;;;;;;8.05;1.88;;;12.80;99.90;;;;;;4954324;28;37537;-82
2022/11/06 11:03:05;;;;;;;8.25;2.28;;;12.70;99.90;;;;;;4948068;28;40130;-81
2022/11/06 11:05:42;;;;;;;15.45;2.22;;;12.50;99.90;;;;;;4941519;28;47105;-82
2022/11/06 11:08:47;;;;;;;13.23;2.35;;;12.40;99.90;;;;;;4943931;28;37042;-78
2022/11/06 11:11:13;;;;;;;11.40;2.10;;;12.10;99.90;;;;;;4898958;29;36309;-80
2022/11/06 11:13:50;;;;;;;6.85;2.30;;;12.00;99.90;;;;;;4905403;29;38742;-80
2022/11/06 11:16:23;;;;;;;8.55;1.63;;;11.80;99.90;;;;;;4924449;28;35377;-80
2022/11/06 11:18:50;;;;;;;13.07;2.08;;;11.70;99.90;;;;;;4947101;28;38740;-80
2022/11/06 11:21:26;;;;;;;7.45;1.90;;;11.70;99.90;;;;;;4943699;28;36639;-79
2022/11/06 11:24:09;;;;;;;12.23;2.78;;;11.70;99.90;;;;;;4944587;28;38941;-81
2022/11/06 11:26:43;;;;;;;12.73;2.55;;;11.70;99.90;;;;;;4952283;28;48454;-81
2022/11/06 11:29:22;;;;;;;7.55;1.92;;;11.70;99.90;;;;;;4962723;28;37029;-80
2022/11/06 11:32:07;;;;;;;14.60;2.10;;;11.60;99.90;;;;;;4959009;28;37850;-80
2022/11/06 11:34:42;;;;;;;8.02;1.80;;;11.60;99.90;;;;;;4938210;28;46856;-80
2022/11/06 11:37:30;;;;;;;6.70;2.17;;;11.70;99.90;;;;;;4932969;28;37131;-79
2022/11/06 11:40:22;;;;;;;7.38;2.42;;;11.70;99.90;;;;;;4944082;28;36735;-78
2022/11/06 11:42:48;;;;;;;6.90;1.90;;;11.80;99.90;;;;;;4949302;28;49481;-80
2022/11/06 11:45:16;;;;;;;5.05;1.90;;;11.70;99.90;;;;;;4934495;28;37880;-80
2022/11/06 11:47:46;;;;;;;9.60;2.28;;;11.80;99.90;;;;;;4938482;28;37362;-79
2022/11/06 11:50:28;;;;;;;7.53;2.55;;;11.80;99.90;;;;;;4929167;28;37142;-80
2022/11/06 11:52:57;;;;;;;5.22;2.30;;;11.80;99.90;;;;;;4925391;28;36475;-80
2022/11/06 11:55:27;;;;;;;9.80;2.92;;;11.70;99.90;;;;;;4937477;28;38358;-78
2022/11/06 11:57:56;;;;;;;7.18;2.05;;;11.80;99.90;;;;;;4937528;28;39779;-79
2022/11/06 12:00:23;;;;;;;11.35;2.42;;;11.80;99.90;;;;;;4949600;28;38370;-78
2022/11/06 12:02:54;;;;;;;9.23;2.42;;;11.80;99.90;;;;;;4930312;28;36413;-78
2022/11/06 12:05:22;;;;;;;6.32;2.65;;;11.80;99.90;;;;;;4938508;28;39043;-76
2022/11/06 12:07:55;;;;;;;6.03;2.40;;;11.70;99.90;;;;;;4942943;28;38385;-79
2022/11/06 12:10:37;;;;;;;9.02;2.38;;;11.80;99.90;;;;;;4919341;28;37546;-78
2022/11/06 12:13:05;;;;;;;9.10;2.17;;;11.80;99.90;;;;;;4936130;28;35475;-78
2022/11/06 12:15:43;;;;;;;7.20;2.28;;;11.80;99.90;;;;;;4930209;28;38506;-77
2022/11/06 12:18:15;;;;;;;9.20;2.58;;;11.80;99.90;;;;;;4944103;28;38353;-78
2022/11/06 12:20:59;;;;;;;10.63;2.75;;;11.80;99.90;;;;;;4928543;28;37369;-78
2022/11/06 12:23:47;;;;;;;9.63;3.00;;;11.80;99.90;;;;;;4926810;28;37249;-78
2022/11/06 12:26:28;;;;;;;8.65;2.50;;;11.80;99.90;;;;;;4939387;28;38072;-77
2022/11/06 12:29:06;;;;;;;9.25;2.70;;;11.70;99.90;;;;;;4913179;28;37527;-79
2022/11/06 12:32:07;;;;;;;10.90;2.97;;;11.70;99.90;;;;;;4896317;28;46519;-78
2022/11/06 12:34:44;;;;;;;12.30;2.67;;;11.70;99.90;;;;;;4908423;28;47421;-76
2022/11/06 12:37:22;;;;;;;9.15;2.40;;;11.70;99.90;;;;;;4890834;28;37319;-78
2022/11/06 12:40:01;;;;;;;9.88;2.33;;;11.60;99.90;;;;;;4921980;28;39171;-79
2022/11/06 12:42:31;;;;;;;8.77;2.40;;;11.60;99.90;;;;;;4925201;28;38274;-77
2022/11/06 12:44:57;;;;;;;7.15;2.80;;;11.50;99.90;;;;;;4924229;28;36957;-77
2022/11/06 12:47:49;;;;;;;9.90;2.08;;;11.50;99.90;;;;;;4928679;28;38722;-77
2022/11/06 12:50:33;;;;;;;6.18;2.30;;;11.50;99.90;;;;;;4950879;28;39384;-79
2022/11/06 12:53:11;;;;;;;8.73;2.33;;;11.50;99.90;;;;;;4950459;28;38854;-77
2022/11/06 12:55:45;;;;;;;7.07;2.38;;;11.50;99.90;;;;;;4945086;28;49309;-79
2022/11/06 12:58:33;;;;;;;10.73;2.17;;;11.50;99.90;;;;;;4934831;28;37528;-78
2022/11/06 13:01:26;;;;;;;12.88;3.22;;;11.40;99.90;;;;;;4944031;28;39380;-78
2022/11/06 13:04:05;;;;;;;8.02;2.30;;;11.40;99.90;;;;;;4931408;28;46973;-78
2022/11/06 13:06:39;;;;;;;5.93;2.63;;;11.30;99.90;;;;;;4953843;28;48806;-78
2022/11/06 13:09:20;;;;;;;11.03;2.90;;;11.30;99.90;;;;;;4947765;28;37886;-80
2022/11/06 13:11:55;;;;;;;8.38;2.67;;;11.30;99.90;;;;;;4918507;29;37790;-79
2022/11/06 13:14:38;;;;;;;8.27;2.67;;;11.20;99.90;;;;;;4939669;28;36930;-78
2022/11/06 13:17:19;;;;;;;7.55;2.65;;;11.30;99.90;;;;;;4958073;28;36030;-80